Butts, Georgia
Current Conditions -  °F | °C
As of 10:55 AM on Sunday 23 Nov 2014 (Local Time) from KJYL Reporting Station
Drizzle Drizzle  
Wind Chill: 61°   Ceiling: 500
Heat Index: 61°   Visibility: 4mi
Dew Point: 60°   Wind: 7mph
Humidity: 97%   Direction: 110°ESE
Pressure: 30.04"   Gusts: NA
Location:  32.7727°N, 81.9794°W
Report Text: KJYL 231555Z AUTO 11006KT 4SM DZ OVC005 16/16 A3004 RMK AO2 T01600156
Loading
Personal Weather Stations






























Interactive Weather Map New forecast layout! Learn more

10-Day Weather Forecast

Advertisements
Track Severe Weather on mobile